Time;durP1;ratioP1;P1;durP2;ratioP2;P2;SDS_P1;SDS_P2;PMS_P1;PMS_P2;Temp;Humidity;BMP_temperature;BMP_pressure;BME280_temperature;BME280_humidity;BME280_pressure;Samples;Min_cycle;Max_cycle;Signal;HPM_P1;HPM_P2
2022/07/04 00:00:52;;;;;;;6.03;3.30;;;12.30;99.90;;;;;;5070965;28;20136;-82
2022/07/04 00:03:18;;;;;;;12.75;4.20;;;12.30;99.90;;;;;;5041119;28;20041;-81
2022/07/04 00:05:44;;;;;;;7.50;4.60;;;12.30;99.90;;;;;;5068205;28;20083;-81
2022/07/04 00:08:10;;;;;;;5.65;3.95;;;12.20;99.90;;;;;;5041148;28;20141;-82
2022/07/04 00:10:35;;;;;;;11.45;5.72;;;12.30;99.90;;;;;;5051713;28;20037;-81
2022/07/04 00:13:02;;;;;;;18.17;6.30;;;12.30;99.90;;;;;;5037813;28;20048;-82
2022/07/04 00:15:27;;;;;;;13.55;5.55;;;12.30;99.90;;;;;;5053760;28;20045;-82
2022/07/04 00:17:53;;;;;;;7.88;5.28;;;12.20;99.90;;;;;;5072748;28;20120;-81
2022/07/04 00:20:19;;;;;;;13.82;5.28;;;12.30;99.90;;;;;;5067270;28;20125;-82
2022/07/04 00:22:45;;;;;;;8.55;5.10;;;12.30;99.90;;;;;;5068415;28;20084;-82
2022/07/04 00:25:11;;;;;;;6.70;4.90;;;12.30;99.90;;;;;;5034781;28;20053;-82
2022/07/04 00:27:37;;;;;;;12.25;5.30;;;12.30;99.90;;;;;;5079036;28;20077;-82
2022/07/04 00:30:04;;;;;;;8.38;5.25;;;12.30;99.90;;;;;;5088050;28;20081;-82
2022/07/04 00:32:30;;;;;;;8.38;5.57;;;12.30;99.90;;;;;;5086511;28;20051;-81
2022/07/04 00:34:56;;;;;;;7.97;5.18;;;12.30;99.90;;;;;;5086712;28;20114;-81
2022/07/04 00:37:21;;;;;;;10.80;5.22;;;12.30;99.90;;;;;;5053903;28;20053;-82
2022/07/04 00:39:47;;;;;;;8.88;5.43;;;12.40;99.90;;;;;;5087293;28;20049;-81
2022/07/04 00:42:13;;;;;;;10.10;5.68;;;12.40;99.90;;;;;;5054693;28;20036;-81
2022/07/04 00:44:39;;;;;;;5.88;4.50;;;12.40;99.90;;;;;;5055514;28;20124;-82
2022/07/04 00:47:06;;;;;;;10.20;4.88;;;12.40;99.90;;;;;;5054900;28;20029;-82
2022/07/04 00:49:32;;;;;;;9.88;5.25;;;12.30;99.90;;;;;;5102921;28;20056;-82
2022/07/04 00:51:59;;;;;;;9.80;5.22;;;12.30;99.90;;;;;;5055316;28;20035;-81
2022/07/04 00:54:28;;;;;;;9.38;5.28;;;12.40;99.90;;;;;;5055330;28;20058;-81
2022/07/04 00:56:55;;;;;;;6.88;4.63;;;12.40;99.90;;;;;;5053931;28;20041;-81
2022/07/04 00:59:22;;;;;;;6.72;4.95;;;12.40;99.90;;;;;;5087838;28;20045;-82
2022/07/04 01:01:48;;;;;;;8.18;5.18;;;12.40;99.90;;;;;;5054869;28;20091;-82
2022/07/04 01:04:14;;;;;;;6.03;3.92;;;12.40;99.90;;;;;;5053768;28;20080;-81
2022/07/04 01:06:40;;;;;;;10.13;5.47;;;12.40;99.90;;;;;;5054912;28;20065;-82
2022/07/04 01:09:06;;;;;;;5.22;4.40;;;12.40;99.90;;;;;;5046900;28;20053;-81
2022/07/04 01:11:32;;;;;;;7.57;4.97;;;12.30;99.90;;;;;;5066187;28;20394;-81
2022/07/04 01:13:58;;;;;;;13.55;6.80;;;12.30;99.90;;;;;;5023031;28;20048;-81
2022/07/04 01:16:27;;;;;;;9.23;5.13;;;12.30;99.90;;;;;;5054850;28;20045;-81
2022/07/04 01:18:54;;;;;;;8.40;5.38;;;12.40;99.90;;;;;;5052598;28;20139;-81
2022/07/04 01:21:20;;;;;;;5.65;4.47;;;12.40;99.90;;;;;;5054760;28;20055;-81
2022/07/04 01:23:47;;;;;;;6.13;4.22;;;12.30;99.90;;;;;;5052478;28;20041;-81
2022/07/04 01:26:13;;;;;;;5.00;4.28;;;12.30;99.90;;;;;;5045021;28;20128;-82
2022/07/04 01:28:39;;;;;;;7.00;4.55;;;12.30;99.90;;;;;;5038916;28;20205;-81
2022/07/04 01:31:05;;;;;;;12.15;5.43;;;12.30;99.90;;;;;;5066056;28;20126;-81
2022/07/04 01:33:32;;;;;;;6.65;4.50;;;12.30;99.90;;;;;;5041223;28;20552;-81
2022/07/04 01:35:58;;;;;;;6.93;5.47;;;12.30;99.90;;;;;;5054998;28;20040;-81
2022/07/04 01:38:23;;;;;;;8.77;5.28;;;12.30;99.90;;;;;;5048381;28;20046;-81
2022/07/04 01:40:50;;;;;;;8.90;6.20;;;12.30;99.90;;;;;;5066417;28;20045;-82
2022/07/04 01:43:15;;;;;;;8.23;5.40;;;12.30;99.90;;;;;;5037531;28;20496;-81
2022/07/04 01:45:41;;;;;;;9.27;4.65;;;12.30;99.90;;;;;;5085676;28;20072;-81
2022/07/04 01:48:09;;;;;;;11.02;5.13;;;12.30;99.90;;;;;;5052862;28;20045;-81
2022/07/04 01:50:35;;;;;;;6.75;4.85;;;12.30;99.90;;;;;;5066229;28;20151;-81
2022/07/04 01:53:01;;;;;;;8.48;4.38;;;12.30;99.90;;;;;;5033335;28;20089;-81
2022/07/04 01:55:28;;;;;;;7.18;5.53;;;12.20;99.90;;;;;;5053292;28;20485;-81
2022/07/04 01:57:54;;;;;;;5.60;4.80;;;12.20;99.90;;;;;;5082056;28;20038;-81
2022/07/04 02:03:04;;;;;;;9.32;4.30;;;12.20;99.90;;;;;;5066328;28;20092;-81
2022/07/04 02:05:30;;;;;;;12.20;4.65;;;12.20;99.90;;;;;;5066123;28;20080;-81
2022/07/04 02:07:56;;;;;;;8.55;5.03;;;12.10;99.90;;;;;;5065028;28;20060;-81
2022/07/04 02:10:22;;;;;;;12.18;5.78;;;12.10;99.90;;;;;;5034076;28;20489;-81
2022/07/04 02:13:03;;;;;;;8.05;5.22;;;12.10;99.90;;;;;;5033803;28;20042;-81
2022/07/04 02:15:33;;;;;;;10.25;5.60;;;12.10;99.90;;;;;;5066638;28;20080;-81
2022/07/04 02:18:00;;;;;;;8.75;5.97;;;12.10;99.90;;;;;;5032682;28;20432;-81
2022/07/04 02:20:27;;;;;;;10.48;5.45;;;12.10;99.90;;;;;;5064873;28;20059;-81
2022/07/04 02:22:53;;;;;;;6.30;4.22;;;12.10;99.90;;;;;;5033932;28;20038;-81
2022/07/04 02:25:19;;;;;;;5.70;5.10;;;12.10;99.90;;;;;;5032651;28;20051;-81
2022/07/04 02:27:45;;;;;;;10.00;5.25;;;12.10;99.90;;;;;;5031868;28;20045;-81
2022/07/04 02:30:12;;;;;;;8.40;5.05;;;12.10;99.90;;;;;;5065880;28;20076;-81
2022/07/04 02:32:38;;;;;;;12.18;6.60;;;12.10;99.90;;;;;;5035464;28;20038;-81
2022/07/04 02:35:04;;;;;;;6.85;5.97;;;12.10;99.90;;;;;;5042189;28;20045;-81
2022/07/04 02:37:30;;;;;;;7.88;6.35;;;12.10;99.90;;;;;;5052849;28;20493;-81
2022/07/04 02:39:56;;;;;;;9.18;6.55;;;12.10;99.90;;;;;;5077657;28;20059;-81
2022/07/04 02:42:22;;;;;;;8.88;5.88;;;12.10;99.90;;;;;;5032658;28;20046;-81
2022/07/04 02:44:48;;;;;;;10.73;7.03;;;12.10;99.90;;;;;;5033551;28;20392;-81
2022/07/04 02:47:14;;;;;;;15.20;7.15;;;12.10;99.90;;;;;;5034013;28;20041;-81
2022/07/04 02:49:40;;;;;;;13.75;7.28;;;12.10;99.90;;;;;;5037003;28;20404;-81
2022/07/04 02:52:07;;;;;;;14.02;6.78;;;12.20;99.90;;;;;;5052102;28;20045;-81
2022/07/04 02:54:32;;;;;;;10.13;6.25;;;12.20;99.90;;;;;;5052574;28;20052;-81
2022/07/04 02:56:58;;;;;;;9.20;5.93;;;12.10;99.90;;;;;;5055863;28;20053;-81
2022/07/04 02:59:24;;;;;;;16.92;6.18;;;12.10;99.90;;;;;;5056739;28;20055;-81
2022/07/04 03:01:49;;;;;;;8.88;6.47;;;12.10;99.90;;;;;;5037602;28;20121;-81
2022/07/04 03:04:15;;;;;;;9.82;7.10;;;12.10;99.90;;;;;;5068967;28;20037;-81
2022/07/04 03:06:42;;;;;;;16.35;7.35;;;12.10;99.90;;;;;;5037414;28;20081;-81
2022/07/04 03:09:08;;;;;;;10.85;7.57;;;12.10;99.90;;;;;;5068993;28;20087;-81
2022/07/04 03:11:34;;;;;;;16.75;7.10;;;12.10;99.90;;;;;;5069385;28;20548;-81
2022/07/04 03:14:00;;;;;;;14.57;7.97;;;12.10;99.90;;;;;;5078043;28;20033;-81
2022/07/04 03:16:26;;;;;;;13.45;8.18;;;12.10;99.90;;;;;;5068298;28;20191;-81
2022/07/04 03:18:52;;;;;;;14.77;7.28;;;12.10;99.90;;;;;;5045047;28;20048;-80
2022/07/04 03:21:18;;;;;;;8.77;6.85;;;12.10;99.90;;;;;;5057169;28;20041;-81
2022/07/04 03:23:57;;;;;;;10.45;6.85;;;12.10;99.90;;;;;;5055015;28;20126;-81
2022/07/04 03:26:29;;;;;;;11.15;7.50;;;12.10;99.90;;;;;;5055882;28;20056;-81
2022/07/04 03:28:55;;;;;;;11.15;7.43;;;12.10;99.90;;;;;;5089120;28;20037;-80
2022/07/04 03:31:21;;;;;;;13.15;8.27;;;12.10;99.90;;;;;;5055686;28;20496;-81
2022/07/04 03:33:47;;;;;;;14.15;7.53;;;12.10;99.90;;;;;;5083578;28;20049;-81
2022/07/04 03:36:13;;;;;;;5.63;5.07;;;12.10;99.90;;;;;;5035566;28;20056;-81
2022/07/04 03:38:38;;;;;;;7.78;6.93;;;12.10;99.90;;;;;;5036148;28;20041;-81
2022/07/04 03:41:04;;;;;;;15.05;8.27;;;12.10;99.90;;;;;;5068728;28;20054;-81
2022/07/04 03:43:30;;;;;;;16.25;8.40;;;12.10;99.90;;;;;;5076752;28;20048;-81
2022/07/04 03:45:56;;;;;;;11.80;6.70;;;12.10;99.90;;;;;;5055992;28;20072;-81
2022/07/04 03:48:21;;;;;;;13.57;8.38;;;12.10;99.90;;;;;;5050613;28;20484;-81
2022/07/04 03:50:47;;;;;;;13.57;8.60;;;12.10;99.90;;;;;;5035433;28;20058;-81
2022/07/04 03:53:14;;;;;;;10.10;6.47;;;12.10;99.90;;;;;;5068099;28;20044;-81
2022/07/04 03:55:40;;;;;;;10.20;6.10;;;12.10;99.90;;;;;;5068561;28;20049;-81
2022/07/04 03:58:06;;;;;;;10.80;7.03;;;12.10;99.90;;;;;;5085943;28;20489;-81
2022/07/04 04:00:32;;;;;;;12.57;6.40;;;12.20;99.90;;;;;;5067687;28;20550;-81
2022/07/04 04:02:58;;;;;;;7.78;6.07;;;12.20;99.90;;;;;;5068436;28;20079;-80
2022/07/04 04:05:27;;;;;;;11.18;7.93;;;12.20;99.90;;;;;;5055044;28;20142;-81
2022/07/04 04:07:57;;;;;;;13.00;6.68;;;12.20;99.90;;;;;;5055573;28;20053;-81
2022/07/04 04:10:24;;;;;;;9.63;6.90;;;12.30;99.90;;;;;;5036418;28;20056;-81
2022/07/04 04:12:50;;;;;;;14.88;8.18;;;12.30;99.90;;;;;;5035238;28;20401;-81
2022/07/04 04:15:16;;;;;;;8.50;6.30;;;12.30;99.90;;;;;;5039769;28;20049;-81
2022/07/04 04:17:42;;;;;;;10.07;5.60;;;12.40;99.90;;;;;;5036175;28;20053;-81
2022/07/04 04:20:11;;;;;;;7.03;6.32;;;12.40;99.90;;;;;;5045714;28;20048;-81
2022/07/04 04:22:36;;;;;;;11.18;6.38;;;12.50;99.90;;;;;;5080236;28;20049;-81
2022/07/04 04:25:02;;;;;;;12.02;7.75;;;12.60;99.90;;;;;;5067991;28;20052;-81
2022/07/04 04:27:28;;;;;;;12.43;7.30;;;12.60;99.90;;;;;;5040569;28;20074;-81
2022/07/04 04:29:54;;;;;;;18.98;8.05;;;12.70;99.90;;;;;;5077446;28;20499;-82
2022/07/04 04:32:20;;;;;;;12.85;8.18;;;12.80;99.90;;;;;;5072455;28;20046;-81
2022/07/04 04:34:46;;;;;;;10.27;7.10;;;12.90;99.90;;;;;;5053549;28;20041;-82
2022/07/04 04:37:11;;;;;;;14.65;8.45;;;12.90;99.90;;;;;;5085753;28;20460;-82
2022/07/04 04:39:39;;;;;;;9.57;6.57;;;13.10;99.90;;;;;;5035826;28;20478;-82
2022/07/04 04:42:05;;;;;;;13.57;7.07;;;13.10;99.90;;;;;;5067383;28;20052;-82
2022/07/04 04:44:30;;;;;;;11.35;7.72;;;13.20;99.90;;;;;;5086389;28;20048;-81
2022/07/04 04:46:56;;;;;;;15.77;9.02;;;13.20;99.90;;;;;;5053341;28;20033;-82
2022/07/04 04:49:22;;;;;;;11.57;6.90;;;13.40;99.90;;;;;;5034846;28;20053;-83
2022/07/04 04:51:47;;;;;;;11.18;7.43;;;13.40;99.90;;;;;;5043526;28;20110;-82
2022/07/04 04:54:13;;;;;;;12.93;7.45;;;13.40;99.90;;;;;;5057488;28;20028;-83
2022/07/04 04:56:39;;;;;;;15.15;6.85;;;13.40;99.90;;;;;;5053256;28;20085;-83
2022/07/04 04:59:05;;;;;;;9.57;7.35;;;13.50;99.90;;;;;;5055246;28;20072;-81
2022/07/04 05:01:31;;;;;;;13.32;7.15;;;13.50;99.90;;;;;;5054013;28;20497;-81
2022/07/04 05:03:56;;;;;;;12.20;6.80;;;13.60;99.90;;;;;;5054485;28;20041;-81
2022/07/04 05:06:22;;;;;;;11.18;7.28;;;13.60;99.90;;;;;;5053953;28;20132;-81
2022/07/04 05:08:48;;;;;;;9.98;7.10;;;13.70;99.90;;;;;;5053963;28;20144;-81
2022/07/04 05:11:14;;;;;;;10.30;6.30;;;13.80;99.90;;;;;;5040294;28;20049;-81
2022/07/04 05:13:40;;;;;;;10.85;7.00;;;13.90;99.90;;;;;;5067047;28;20077;-81
2022/07/04 05:16:06;;;;;;;12.30;6.60;;;14.00;99.90;;;;;;5066232;28;20096;-80
2022/07/04 05:18:32;;;;;;;13.23;6.93;;;14.00;99.90;;;;;;5038124;28;20044;-83
2022/07/04 05:20:59;;;;;;;13.57;7.32;;;14.10;99.90;;;;;;5055107;28;20049;-83
2022/07/04 05:23:24;;;;;;;17.73;6.95;;;14.20;99.90;;;;;;5073105;28;20103;-82
2022/07/04 05:25:50;;;;;;;8.55;6.53;;;14.20;99.90;;;;;;5034942;28;20033;-82
2022/07/04 05:28:16;;;;;;;11.68;6.90;;;14.30;99.90;;;;;;5037016;28;20512;-83
2022/07/04 05:30:42;;;;;;;13.27;6.82;;;14.40;99.90;;;;;;5033902;28;20488;-83
2022/07/04 05:33:08;;;;;;;9.25;6.70;;;14.50;99.90;;;;;;5034829;28;20128;-84
2022/07/04 05:35:34;;;;;;;9.93;6.70;;;14.50;99.90;;;;;;5034659;28;20124;-86
2022/07/04 05:38:00;;;;;;;13.07;7.88;;;14.60;99.90;;;;;;5079061;28;20377;-86
2022/07/04 05:40:26;;;;;;;8.57;6.47;;;14.70;99.90;;;;;;5053205;28;20103;-86
2022/07/04 05:42:51;;;;;;;12.40;7.25;;;14.70;99.90;;;;;;5087040;28;20048;-86
2022/07/04 05:45:17;;;;;;;16.50;7.28;;;14.80;99.90;;;;;;5085859;28;20045;-87
2022/07/04 05:47:44;;;;;;;13.45;6.78;;;14.90;99.90;;;;;;5054959;28;20040;-86
2022/07/04 05:50:10;;;;;;;12.40;6.15;;;15.00;99.90;;;;;;5054088;28;20049;-84
2022/07/04 05:52:36;;;;;;;11.73;5.57;;;15.10;99.90;;;;;;5043866;28;20076;-85
2022/07/04 05:55:02;;;;;;;9.60;5.95;;;15.20;99.90;;;;;;5034155;28;20049;-84
2022/07/04 05:57:27;;;;;;;12.57;6.05;;;15.30;99.90;;;;;;5044419;28;20079;-84
2022/07/04 05:59:53;;;;;;;8.52;5.93;;;15.40;99.90;;;;;;5085653;28;20056;-84
2022/07/04 06:02:19;;;;;;;12.38;6.72;;;15.50;99.90;;;;;;5048552;28;20033;-84
2022/07/04 06:04:48;;;;;;;12.55;6.50;;;15.60;99.90;;;;;;5044519;28;20052;-84
2022/07/04 06:07:14;;;;;;;14.52;6.10;;;15.70;99.90;;;;;;5036772;28;20045;-87
2022/07/04 06:09:40;;;;;;;13.15;6.40;;;15.80;99.90;;;;;;5053527;28;20178;-87
2022/07/04 06:12:06;;;;;;;10.00;5.03;;;15.90;99.90;;;;;;5033248;28;20060;-85
2022/07/04 06:14:32;;;;;;;11.52;5.65;;;16.00;99.90;;;;;;5032767;28;20094;-85
2022/07/04 06:16:58;;;;;;;9.30;5.40;;;16.10;99.90;;;;;;5033686;28;20134;-85
2022/07/04 06:19:24;;;;;;;12.40;5.20;;;16.20;99.90;;;;;;5043993;28;20477;-85
2022/07/04 06:21:50;;;;;;;9.95;5.68;;;16.30;99.90;;;;;;5055118;28;20052;-85
2022/07/04 06:24:15;;;;;;;14.07;6.22;;;16.40;99.90;;;;;;5032599;28;20041;-86
2022/07/04 06:26:41;;;;;;;13.45;5.82;;;16.50;99.90;;;;;;5047629;28;20041;-87
2022/07/04 06:29:07;;;;;;;11.25;5.13;;;16.60;99.90;;;;;;5070236;28;20048;-85
2022/07/04 06:31:33;;;;;;;9.00;4.88;;;16.60;99.90;;;;;;5055568;28;20041;-86
2022/07/04 06:36:45;;;;;;;10.33;5.53;;;16.80;99.90;;;;;;5034697;28;20051;-85
2022/07/04 06:39:10;;;;;;;12.25;5.38;;;16.80;99.90;;;;;;5050148;28;20041;-86
2022/07/04 06:41:37;;;;;;;13.48;5.53;;;16.90;99.90;;;;;;5052506;28;20492;-86
2022/07/04 06:44:03;;;;;;;10.68;5.63;;;17.00;99.90;;;;;;5071997;28;20405;-84
2022/07/04 06:46:29;;;;;;;16.40;5.47;;;17.10;99.90;;;;;;5032043;28;20053;-84
2022/07/04 06:48:55;;;;;;;13.40;5.28;;;17.20;99.90;;;;;;5047761;28;20834;-86
2022/07/04 06:51:22;;;;;;;10.48;5.15;;;17.30;99.90;;;;;;5033388;28;20056;-85
2022/07/04 06:53:48;;;;;;;7.05;5.40;;;17.40;99.90;;;;;;5032534;28;20042;-86
2022/07/04 06:56:14;;;;;;;14.68;4.82;;;17.50;99.90;;;;;;5032351;28;20547;-86
2022/07/04 06:58:40;;;;;;;10.00;5.25;;;17.60;99.90;;;;;;5044838;28;20115;-86
2022/07/04 07:01:05;;;;;;;13.20;4.25;;;17.70;99.90;;;;;;5058521;28;20113;-83
2022/07/04 07:03:31;;;;;;;12.60;4.65;;;17.70;99.90;;;;;;5059662;28;20048;-85
2022/07/04 07:05:57;;;;;;;9.13;4.65;;;17.80;99.90;;;;;;5051840;28;20091;-85
2022/07/04 07:08:23;;;;;;;11.55;4.50;;;17.90;99.90;;;;;;5034013;28;20458;-84
2022/07/04 07:10:49;;;;;;;10.57;4.13;;;18.00;99.90;;;;;;5048737;28;20034;-85
2022/07/04 07:13:15;;;;;;;9.80;4.88;;;18.00;99.90;;;;;;5033120;28;20401;-84
2022/07/04 07:15:41;;;;;;;7.47;3.78;;;18.00;99.90;;;;;;5031298;28;20085;-86
2022/07/04 07:18:07;;;;;;;7.88;4.00;;;18.00;99.90;;;;;;5033886;28;20132;-86
2022/07/04 07:20:33;;;;;;;8.93;3.88;;;18.10;99.90;;;;;;5051047;28;20045;-86
2022/07/04 07:23:02;;;;;;;13.00;4.05;;;18.10;99.90;;;;;;5052294;28;20060;-86
2022/07/04 07:25:28;;;;;;;8.15;3.38;;;18.20;99.90;;;;;;5085220;28;20045;-85
2022/07/04 07:27:54;;;;;;;7.82;3.15;;;18.30;99.90;;;;;;5032952;28;20052;-88
2022/07/04 07:30:20;;;;;;;8.23;3.33;;;18.30;99.90;;;;;;5032153;28;20045;-83
2022/07/04 07:32:45;;;;;;;8.20;3.65;;;18.40;99.90;;;;;;5038285;28;20063;-84
2022/07/04 07:35:12;;;;;;;9.13;2.78;;;18.50;99.90;;;;;;5088657;28;20053;-86
2022/07/04 07:37:38;;;;;;;9.73;2.55;;;18.60;99.90;;;;;;5052012;28;20071;-85
2022/07/04 07:40:07;;;;;;;7.35;2.58;;;18.70;99.90;;;;;;5020464;28;20048;-86
2022/07/04 07:42:36;;;;;;;8.63;3.03;;;18.80;99.90;;;;;;5067158;28;20132;-85
2022/07/04 07:45:02;;;;;;;10.18;2.65;;;18.80;99.90;;;;;;5067957;28;20045;-86
2022/07/04 07:47:28;;;;;;;8.40;1.75;;;18.90;99.90;;;;;;5036602;28;20440;-86
2022/07/04 07:49:54;;;;;;;6.05;1.50;;;19.00;99.90;;;;;;5042895;28;20434;-84
2022/07/04 07:52:20;;;;;;;8.57;1.60;;;18.80;99.90;;;;;;5044411;28;20049;-86
2022/07/04 07:54:46;;;;;;;8.65;2.25;;;18.70;99.90;;;;;;5036082;28;20033;-85
2022/07/04 07:57:12;;;;;;;5.90;1.80;;;18.60;99.90;;;;;;5045097;28;20107;-85
2022/07/04 07:59:37;;;;;;;7.80;1.90;;;18.50;99.90;;;;;;5087792;28;20054;-85
2022/07/04 08:02:03;;;;;;;5.07;1.75;;;18.30;99.90;;;;;;5089456;28;20036;-85
2022/07/04 08:04:35;;;;;;;5.93;1.40;;;18.30;99.90;;;;;;5087238;28;20047;-85
2022/07/04 08:07:03;;;;;;;8.43;2.42;;;18.20;99.90;;;;;;5059672;28;20076;-86
2022/07/04 08:09:30;;;;;;;5.25;1.10;;;18.10;99.90;;;;;;5068175;28;20088;-87
2022/07/04 08:11:55;;;;;;;4.25;1.08;;;17.90;99.90;;;;;;5036013;28;20049;-85
2022/07/04 08:14:21;;;;;;;4.32;1.10;;;17.90;99.90;;;;;;5059685;28;20083;-85
2022/07/04 08:16:47;;;;;;;7.22;1.45;;;17.90;99.90;;;;;;5058001;28;20056;-86
2022/07/04 08:19:13;;;;;;;6.53;1.75;;;18.00;99.90;;;;;;5053634;28;20041;-85
2022/07/04 08:21:39;;;;;;;4.18;1.33;;;18.00;99.90;;;;;;5055738;28;20048;-85
2022/07/04 08:24:05;;;;;;;6.13;1.38;;;18.10;99.90;;;;;;5069543;28;20086;-86
2022/07/04 08:26:31;;;;;;;5.25;1.33;;;18.20;99.90;;;;;;5034219;28;20054;-86
2022/07/04 08:28:59;;;;;;;8.20;1.52;;;18.20;99.90;;;;;;5053327;28;20068;-86
2022/07/04 08:31:28;;;;;;;4.18;1.63;;;18.20;99.90;;;;;;5042539;28;20068;-86
2022/07/04 08:33:54;;;;;;;3.88;1.15;;;18.20;99.90;;;;;;5034894;28;20046;-86
2022/07/04 08:36:20;;;;;;;6.40;1.52;;;18.20;99.90;;;;;;5067640;28;20508;-85
2022/07/04 08:38:46;;;;;;;2.50;1.23;;;18.20;99.90;;;;;;5035387;28;20091;-86
2022/07/04 08:41:14;;;;;;;2.47;1.10;;;18.20;99.90;;;;;;5047311;28;20057;-86
2022/07/04 08:43:41;;;;;;;4.68;1.13;;;18.20;99.90;;;;;;5088121;28;20119;-86
2022/07/04 08:46:10;;;;;;;3.67;0.90;;;18.10;99.90;;;;;;5079829;28;20164;-86
2022/07/04 08:48:38;;;;;;;3.70;1.20;;;18.00;99.90;;;;;;5047758;28;20076;-86
2022/07/04 08:51:18;;;;;;;7.50;1.00;;;17.90;99.90;;;;;;5047009;28;20080;-86
2022/07/04 08:53:52;;;;;;;3.03;1.17;;;17.90;99.90;;;;;;5073103;28;20072;-87
2022/07/04 08:59:07;;;;;;;2.60;0.80;;;18.00;99.90;;;;;;5055154;28;20175;-85
2022/07/04 09:01:42;;;;;;;4.03;1.23;;;18.20;99.90;;;;;;5036971;28;20132;-86
2022/07/04 09:04:10;;;;;;;6.57;1.20;;;18.30;99.90;;;;;;5047646;28;20482;-86
2022/07/04 09:06:37;;;;;;;10.35;1.75;;;18.40;99.90;;;;;;5059348;28;20388;-92
2022/07/04 09:09:04;;;;;;;2.33;0.98;;;18.40;99.90;;;;;;5036376;28;20067;-83
2022/07/04 09:11:30;;;;;;;5.55;1.00;;;18.40;99.90;;;;;;5053505;28;20045;-86
2022/07/04 09:13:57;;;;;;;2.47;1.15;;;18.20;99.90;;;;;;5054719;28;20060;-87
2022/07/04 09:16:24;;;;;;;1.65;0.90;;;18.10;99.90;;;;;;5036182;28;20503;-88
2022/07/04 09:18:54;;;;;;;4.85;0.90;;;18.10;99.90;;;;;;5052616;28;20045;-87
2022/07/04 09:21:23;;;;;;;3.67;1.35;;;18.00;99.90;;;;;;5056006;28;20049;-87
2022/07/04 09:23:52;;;;;;;4.68;1.50;;;18.00;99.90;;;;;;5062976;28;20392;-87
2022/07/04 09:26:22;;;;;;;4.60;1.33;;;18.00;99.90;;;;;;5059909;28;20040;-86
2022/07/04 09:28:57;;;;;;;5.07;1.08;;;18.10;99.90;;;;;;5054237;28;20043;-86
2022/07/04 09:31:26;;;;;;;6.43;1.40;;;18.20;99.90;;;;;;5053576;28;20052;-87
2022/07/04 09:34:05;;;;;;;3.15;1.10;;;18.40;99.90;;;;;;5053468;28;20431;-87
2022/07/04 09:36:33;;;;;;;6.65;1.33;;;18.50;99.90;;;;;;5060914;28;20048;-87
2022/07/04 09:39:18;;;;;;;3.03;0.90;;;18.50;99.90;;;;;;5060267;28;20507;-86
2022/07/04 09:42:01;;;;;;;5.15;1.02;;;18.50;99.90;;;;;;5052247;28;20041;-83
2022/07/04 09:44:48;;;;;;;4.13;1.10;;;18.40;99.90;;;;;;5034979;28;20128;-84
2022/07/04 09:47:27;;;;;;;3.42;1.15;;;18.40;99.90;;;;;;5052937;28;20056;-86
2022/07/04 09:50:15;;;;;;;5.90;1.40;;;18.20;99.90;;;;;;5033104;28;20088;-86
2022/07/04 09:52:55;;;;;;;5.63;1.08;;;18.20;99.90;;;;;;5083325;28;20076;-85
2022/07/04 09:55:30;;;;;;;4.63;0.88;;;18.40;99.90;;;;;;5033133;28;20508;-89
2022/07/04 09:58:03;;;;;;;;;;;18.50;99.90;;;;;;5065904;28;20098;-82
2022/07/04 10:00:35;;;;;;;4.13;1.00;;;18.60;99.90;;;;;;5032815;28;19916;-86
2022/07/04 10:03:30;;;;;;;2.15;0.70;;;18.80;99.90;;;;;;5052584;28;20041;-85
2022/07/04 10:06:11;;;;;;;2.88;0.88;;;18.90;99.90;;;;;;5084462;28;20497;-86
2022/07/04 10:08:41;;;;;;;12.88;1.38;;;19.10;99.90;;;;;;5033057;28;20060;-84
2022/07/04 10:11:08;;;;;;;4.72;0.98;;;19.10;99.90;;;;;;5066115;28;20087;-84
2022/07/04 10:13:34;;;;;;;5.15;1.25;;;19.10;99.90;;;;;;5087778;28;20045;-84
2022/07/04 10:16:00;;;;;;;2.28;0.95;;;19.10;99.90;;;;;;5037276;28;20524;-90
2022/07/04 10:18:27;;;;;;;2.28;1.10;;;19.10;99.90;;;;;;5063710;28;20115;-86
2022/07/04 10:20:54;;;;;;;3.28;0.73;;;19.10;99.90;;;;;;5052339;28;20052;-87
2022/07/04 10:23:22;;;;;;;5.00;1.08;;;19.30;99.90;;;;;;5039438;28;20041;-87
2022/07/04 10:25:53;;;;;;;3.50;0.90;;;19.30;99.90;;;;;;5067810;28;20052;-90
2022/07/04 10:28:20;;;;;;;2.63;0.90;;;19.30;99.90;;;;;;5065924;28;20107;-87
2022/07/04 10:30:51;;;;;;;5.00;1.00;;;19.30;99.90;;;;;;5077391;28;20037;-84
2022/07/04 10:33:26;;;;;;;1.25;0.65;;;19.30;99.90;;;;;;5042858;28;20076;-84
2022/07/04 10:36:02;;;;;;;1.60;0.90;;;19.30;99.90;;;;;;5046914;28;20102;-88
2022/07/04 10:38:34;;;;;;;1.85;0.52;;;19.40;99.90;;;;;;5051512;28;20102;-87
2022/07/04 10:41:07;;;;;;;4.30;0.70;;;19.50;99.90;;;;;;5051159;28;20236;-88
2022/07/04 10:43:37;;;;;;;6.05;0.82;;;19.60;99.90;;;;;;5042066;28;20044;-89
2022/07/04 10:46:14;;;;;;;2.10;0.63;;;19.50;99.90;;;;;;5050452;28;20049;-87
2022/07/04 10:49:12;;;;;;;3.00;0.73;;;19.50;99.90;;;;;;5032822;28;20061;-88
2022/07/04 10:51:56;;;;;;;5.32;0.90;;;19.60;99.90;;;;;;5040753;28;20062;-88
2022/07/04 10:54:24;;;;;;;1.98;0.52;;;19.70;99.90;;;;;;5051917;28;20053;-85
2022/07/04 10:56:54;;;;;;;4.63;1.00;;;19.60;99.90;;;;;;5079985;28;20098;-92
2022/07/04 10:59:29;;;;;;;1.23;0.52;;;19.60;99.90;;;;;;5051867;28;20042;-89
2022/07/04 11:02:07;;;;;;;2.65;0.68;;;19.60;99.90;;;;;;5054049;28;20047;-90
2022/07/04 11:04:55;;;;;;;3.30;0.70;;;19.60;99.90;;;;;;5056438;28;20050;-85
2022/07/04 11:07:30;;;;;;;3.70;0.63;;;19.50;99.90;;;;;;5065195;28;20112;-89
2022/07/04 11:10:16;;;;;;;5.47;0.93;;;19.40;99.90;;;;;;5032694;28;20052;-83
2022/07/04 11:12:56;;;;;;;2.13;0.75;;;19.50;99.90;;;;;;5079616;28;20049;-86
2022/07/04 11:15:28;;;;;;;3.55;0.60;;;19.60;99.90;;;;;;5070959;28;20132;-84
2022/07/04 11:17:56;;;;;;;4.32;1.20;;;19.60;99.90;;;;;;5053252;28;20366;-87
2022/07/04 11:20:24;;;;;;;4.53;1.02;;;19.70;99.90;;;;;;5039673;28;20135;-91
2022/07/04 11:22:50;;;;;;;1.90;1.15;;;19.80;99.90;;;;;;5089016;28;20151;-85
2022/07/04 11:25:18;;;;;;;3.22;0.68;;;19.80;99.90;;;;;;5055490;28;20163;-88
2022/07/04 11:27:43;;;;;;;2.05;0.80;;;19.80;99.90;;;;;;5044589;28;20142;-86
2022/07/04 11:30:10;;;;;;;1.67;0.70;;;19.70;99.90;;;;;;5078682;28;20069;-91
2022/07/04 11:32:38;;;;;;;5.72;0.80;;;19.70;99.90;;;;;;5052160;28;20041;-88
2022/07/04 11:35:05;;;;;;;2.28;0.82;;;19.70;99.90;;;;;;5073182;28;20378;-87
2022/07/04 11:37:31;;;;;;;6.78;1.00;;;19.80;99.90;;;;;;5044011;28;20041;-84
2022/07/04 11:45:02;;;;;;;6.03;1.20;;;19.90;99.90;;;;;;5081163;28;20072;-85
2022/07/04 11:45:53;;;;;;;3.72;0.90;;;20.10;99.90;;;;;;5069852;28;20405;-89
2022/07/04 11:48:23;;;;;;;2.42;0.90;;;19.90;99.90;;;;;;5039821;28;20045;-92
2022/07/04 11:50:49;;;;;;;8.70;0.80;;;19.90;99.90;;;;;;5054418;28;20045;-87
2022/07/04 11:53:18;;;;;;;6.70;0.90;;;19.90;99.90;;;;;;5088575;28;20049;-85
2022/07/04 11:55:55;;;;;;;2.88;1.20;;;19.90;99.90;;;;;;5055244;28;20397;-87
2022/07/04 11:58:25;;;;;;;2.85;1.00;;;20.00;99.90;;;;;;5087683;28;20084;-87
2022/07/04 12:00:51;;;;;;;2.85;0.77;;;20.00;99.90;;;;;;5073748;28;20482;-89
2022/07/04 12:03:17;;;;;;;2.03;0.60;;;20.10;99.90;;;;;;5043623;28;20052;-91
2022/07/04 12:05:43;;;;;;;1.67;0.90;;;20.10;99.90;;;;;;5084841;28;20041;-88
2022/07/04 12:08:10;;;;;;;3.20;0.98;;;20.20;99.90;;;;;;5079981;28;20057;-85
2022/07/04 12:10:36;;;;;;;3.05;0.90;;;20.20;99.90;;;;;;5074050;28;20049;-88
2022/07/04 12:13:17;;;;;;;4.18;1.00;;;20.20;99.90;;;;;;5058493;28;20052;-90
2022/07/04 12:15:45;;;;;;;4.78;1.20;;;20.10;99.90;;;;;;5068493;28;20045;-88
2022/07/04 12:18:32;;;;;;;7.40;0.90;;;20.10;99.90;;;;;;5050933;28;20092;-85
2022/07/04 12:21:17;;;;;;;2.60;0.90;;;20.10;99.90;;;;;;5039030;28;20049;-91
2022/07/04 12:23:54;;;;;;;3.80;0.77;;;20.10;99.90;;;;;;5053126;28;20136;-89
2022/07/04 12:26:20;;;;;;;4.50;0.80;;;20.10;99.90;;;;;;5077097;28;20052;-85
2022/07/04 12:28:46;;;;;;;3.38;1.13;;;20.10;99.90;;;;;;5055954;28;20040;-86
2022/07/04 12:31:12;;;;;;;3.38;1.38;;;20.10;99.90;;;;;;5086040;28;20053;-83
2022/07/04 12:33:38;;;;;;;3.13;0.70;;;20.10;99.90;;;;;;5085206;28;20508;-91
2022/07/04 12:36:06;;;;;;;2.90;0.80;;;20.20;99.90;;;;;;5050871;28;20045;-87
2022/07/04 12:38:41;;;;;;;2.33;0.88;;;20.20;99.90;;;;;;5053734;28;20056;-85
2022/07/04 12:41:12;;;;;;;4.35;0.93;;;20.20;99.90;;;;;;5053298;28;20057;-88
2022/07/04 12:43:44;;;;;;;3.10;0.80;;;20.10;99.90;;;;;;5048454;28;20044;-87
2022/07/04 12:46:25;;;;;;;2.35;0.70;;;20.00;99.90;;;;;;5035308;28;20053;-90
2022/07/04 12:48:53;;;;;;;3.05;0.90;;;19.90;99.90;;;;;;5059212;28;20453;-85
2022/07/04 12:51:21;;;;;;;5.45;0.77;;;19.90;99.90;;;;;;5054199;28;20052;-87
2022/07/04 12:53:49;;;;;;;2.03;0.70;;;19.90;99.90;;;;;;5051023;28;20123;-86
2022/07/04 12:56:42;;;;;;;2.35;0.63;;;19.90;99.90;;;;;;5051655;28;20152;-88
2022/07/04 12:59:12;;;;;;;1.77;0.60;;;19.90;99.90;;;;;;5034910;28;20073;-85